sensor_id;sensor_type;location;lat;lon;timestamp;P1;durP1;ratioP1;P2;durP2;ratioP2
61360;SDS011;47232;47.506;18.936;2023-06-22T00:01:01;9.90;;;3.80;;
61360;SDS011;47232;47.506;18.936;2023-06-22T00:41:50;7.40;;;4.20;;
61360;SDS011;47232;47.506;18.936;2023-06-22T01:59:03;8.30;;;3.40;;
61360;SDS011;47232;47.506;18.936;2023-06-22T02:06:16;7.30;;;3.70;;
61360;SDS011;47232;47.506;18.936;2023-06-22T03:06:45;8.90;;;3.70;;
61360;SDS011;47232;47.506;18.936;2023-06-22T03:24:06;7.00;;;3.70;;
61360;SDS011;47232;47.506;18.936;2023-06-22T04:40:39;6.90;;;3.70;;
61360;SDS011;47232;47.506;18.936;2023-06-22T04:44:00;7.00;;;3.20;;
61360;SDS011;47232;47.506;18.936;2023-06-22T05:48:59;8.90;;;4.60;;
61360;SDS011;47232;47.506;18.936;2023-06-22T06:38:49;10.30;;;4.30;;
61360;SDS011;47232;47.506;18.936;2023-06-22T06:58:02;9.90;;;4.20;;
61360;SDS011;47232;47.506;18.936;2023-06-22T08:14:21;8.20;;;4.20;;
61360;SDS011;47232;47.506;18.936;2023-06-22T09:54:34;10.30;;;9.10;;
61360;SDS011;47232;47.506;18.936;2023-06-22T10:04:43;10.60;;;9.00;;
61360;SDS011;47232;47.506;18.936;2023-06-22T10:11:56;8.90;;;8.00;;
61360;SDS011;47232;47.506;18.936;2023-06-22T10:18:50;10.00;;;8.90;;
61360;SDS011;47232;47.506;18.936;2023-06-22T10:29:10;11.60;;;9.10;;
61360;SDS011;47232;47.506;18.936;2023-06-22T10:39:31;10.50;;;9.10;;
61360;SDS011;47232;47.506;18.936;2023-06-22T10:56:27;10.50;;;8.40;;
61360;SDS011;47232;47.506;18.936;2023-06-22T11:42:49;11.00;;;8.10;;
61360;SDS011;47232;47.506;18.936;2023-06-22T12:01:37;11.70;;;8.60;;
61360;SDS011;47232;47.506;18.936;2023-06-22T12:35:43;11.80;;;8.30;;
61360;SDS011;47232;47.506;18.936;2023-06-22T12:58:44;9.30;;;7.60;;
61360;SDS011;47232;47.506;18.936;2023-06-22T13:17:07;9.40;;;7.60;;
61360;SDS011;47232;47.506;18.936;2023-06-22T13:19:39;9.50;;;7.80;;
61360;SDS011;47232;47.506;18.936;2023-06-22T13:29:00;9.90;;;7.70;;
61360;SDS011;47232;47.506;18.936;2023-06-22T13:31:51;10.50;;;7.80;;
61360;SDS011;47232;47.506;18.936;2023-06-22T13:34:33;9.80;;;7.40;;
61360;SDS011;47232;47.506;18.936;2023-06-22T13:37:13;10.70;;;7.80;;
61360;SDS011;47232;47.506;18.936;2023-06-22T13:39:48;10.00;;;7.80;;
61360;SDS011;47232;47.506;18.936;2023-06-22T13:42:18;10.30;;;8.00;;
61360;SDS011;47232;47.506;18.936;2023-06-22T13:44:50;9.70;;;7.20;;
61360;SDS011;47232;47.506;18.936;2023-06-22T13:47:20;10.90;;;7.40;;
61360;SDS011;47232;47.506;18.936;2023-06-22T13:49:46;9.00;;;7.40;;
61360;SDS011;47232;47.506;18.936;2023-06-22T13:52:17;9.50;;;7.80;;
61360;SDS011;47232;47.506;18.936;2023-06-22T13:54:50;10.60;;;7.80;;
61360;SDS011;47232;47.506;18.936;2023-06-22T13:57:26;8.60;;;7.40;;
61360;SDS011;47232;47.506;18.936;2023-06-22T13:59:55;10.00;;;7.40;;
61360;SDS011;47232;47.506;18.936;2023-06-22T14:02:30;10.70;;;7.80;;
61360;SDS011;47232;47.506;18.936;2023-06-22T14:04:59;9.90;;;7.80;;
61360;SDS011;47232;47.506;18.936;2023-06-22T14:07:31;9.40;;;7.30;;
61360;SDS011;47232;47.506;18.936;2023-06-22T14:10:19;8.90;;;7.70;;
61360;SDS011;47232;47.506;18.936;2023-06-22T14:13:18;9.50;;;7.40;;
61360;SDS011;47232;47.506;18.936;2023-06-22T14:15:45;11.40;;;7.80;;
61360;SDS011;47232;47.506;18.936;2023-06-22T14:18:53;10.40;;;7.40;;
61360;SDS011;47232;47.506;18.936;2023-06-22T14:21:38;9.80;;;7.30;;
61360;SDS011;47232;47.506;18.936;2023-06-22T14:24:13;9.40;;;7.10;;
61360;SDS011;47232;47.506;18.936;2023-06-22T14:26:44;9.50;;;7.10;;
61360;SDS011;47232;47.506;18.936;2023-06-22T14:29:14;9.20;;;7.10;;
61360;SDS011;47232;47.506;18.936;2023-06-22T14:31:40;10.40;;;7.20;;
61360;SDS011;47232;47.506;18.936;2023-06-22T14:34:20;10.50;;;7.60;;
61360;SDS011;47232;47.506;18.936;2023-06-22T14:37:06;10.60;;;7.40;;
61360;SDS011;47232;47.506;18.936;2023-06-22T14:40:04;10.70;;;7.60;;
61360;SDS011;47232;47.506;18.936;2023-06-22T14:42:48;9.20;;;7.30;;
61360;SDS011;47232;47.506;18.936;2023-06-22T14:45:33;9.20;;;6.80;;
61360;SDS011;47232;47.506;18.936;2023-06-22T14:48:10;10.40;;;6.90;;
61360;SDS011;47232;47.506;18.936;2023-06-22T14:51:11;11.80;;;7.50;;
61360;SDS011;47232;47.506;18.936;2023-06-22T14:53:38;9.40;;;7.40;;
61360;SDS011;47232;47.506;18.936;2023-06-22T14:56:05;9.70;;;7.80;;
61360;SDS011;47232;47.506;18.936;2023-06-22T14:58:33;9.80;;;7.50;;
61360;SDS011;47232;47.506;18.936;2023-06-22T15:01:06;8.90;;;6.70;;
61360;SDS011;47232;47.506;18.936;2023-06-22T15:03:46;8.40;;;7.20;;
61360;SDS011;47232;47.506;18.936;2023-06-22T15:06:23;12.50;;;7.90;;
61360;SDS011;47232;47.506;18.936;2023-06-22T15:08:58;10.10;;;7.10;;
61360;SDS011;47232;47.506;18.936;2023-06-22T15:11:45;8.90;;;7.40;;
61360;SDS011;47232;47.506;18.936;2023-06-22T15:17:00;12.30;;;7.40;;
61360;SDS011;47232;47.506;18.936;2023-06-22T15:19:30;13.00;;;8.20;;
61360;SDS011;47232;47.506;18.936;2023-06-22T15:22:18;9.90;;;7.40;;
61360;SDS011;47232;47.506;18.936;2023-06-22T15:24:45;9.10;;;7.20;;
61360;SDS011;47232;47.506;18.936;2023-06-22T15:27:39;9.00;;;7.00;;
61360;SDS011;47232;47.506;18.936;2023-06-22T15:30:12;10.20;;;6.90;;
61360;SDS011;47232;47.506;18.936;2023-06-22T15:32:47;10.30;;;7.40;;
61360;SDS011;47232;47.506;18.936;2023-06-22T15:37:51;11.70;;;7.40;;
61360;SDS011;47232;47.506;18.936;2023-06-22T15:40:22;11.50;;;7.00;;
61360;SDS011;47232;47.506;18.936;2023-06-22T15:42:54;9.90;;;7.00;;
61360;SDS011;47232;47.506;18.936;2023-06-22T15:45:47;9.50;;;7.00;;
61360;SDS011;47232;47.506;18.936;2023-06-22T15:50:45;9.70;;;7.00;;
61360;SDS011;47232;47.506;18.936;2023-06-22T15:53:11;7.90;;;7.00;;
61360;SDS011;47232;47.506;18.936;2023-06-22T15:55:45;9.50;;;6.60;;
61360;SDS011;47232;47.506;18.936;2023-06-22T15:58:16;11.80;;;7.90;;
61360;SDS011;47232;47.506;18.936;2023-06-22T16:00:49;10.40;;;7.10;;
61360;SDS011;47232;47.506;18.936;2023-06-22T16:03:38;10.80;;;7.60;;
61360;SDS011;47232;47.506;18.936;2023-06-22T16:06:15;10.50;;;7.40;;
61360;SDS011;47232;47.506;18.936;2023-06-22T16:08:45;9.20;;;7.50;;
61360;SDS011;47232;47.506;18.936;2023-06-22T16:11:28;10.00;;;7.60;;
61360;SDS011;47232;47.506;18.936;2023-06-22T16:14:07;10.60;;;7.80;;
61360;SDS011;47232;47.506;18.936;2023-06-22T16:16:39;8.60;;;7.10;;
61360;SDS011;47232;47.506;18.936;2023-06-22T16:19:07;10.00;;;7.60;;
61360;SDS011;47232;47.506;18.936;2023-06-22T16:21:33;10.30;;;7.50;;
61360;SDS011;47232;47.506;18.936;2023-06-22T16:23:59;9.50;;;7.30;;
61360;SDS011;47232;47.506;18.936;2023-06-22T16:26:29;9.50;;;7.30;;
61360;SDS011;47232;47.506;18.936;2023-06-22T16:29:23;11.10;;;8.00;;
61360;SDS011;47232;47.506;18.936;2023-06-22T16:31:49;9.80;;;7.40;;
61360;SDS011;47232;47.506;18.936;2023-06-22T16:37:39;10.60;;;7.60;;
61360;SDS011;47232;47.506;18.936;2023-06-22T16:40:31;8.80;;;7.70;;
61360;SDS011;47232;47.506;18.936;2023-06-22T16:42:58;10.90;;;8.30;;
61360;SDS011;47232;47.506;18.936;2023-06-22T16:45:27;10.10;;;8.20;;
61360;SDS011;47232;47.506;18.936;2023-06-22T16:47:54;13.00;;;8.30;;
61360;SDS011;47232;47.506;18.936;2023-06-22T16:50:21;13.40;;;8.30;;
61360;SDS011;47232;47.506;18.936;2023-06-22T16:52:46;11.20;;;8.20;;
61360;SDS011;47232;47.506;18.936;2023-06-22T16:55:40;10.30;;;7.80;;
61360;SDS011;47232;47.506;18.936;2023-06-22T16:58:14;10.30;;;8.50;;
61360;SDS011;47232;47.506;18.936;2023-06-22T17:00:46;9.10;;;7.50;;
61360;SDS011;47232;47.506;18.936;2023-06-22T17:03:15;9.90;;;8.20;;
61360;SDS011;47232;47.506;18.936;2023-06-22T17:05:57;10.80;;;8.00;;
61360;SDS011;47232;47.506;18.936;2023-06-22T17:08:32;9.20;;;8.20;;
61360;SDS011;47232;47.506;18.936;2023-06-22T17:11:07;10.90;;;7.80;;
61360;SDS011;47232;47.506;18.936;2023-06-22T17:14:00;10.60;;;8.20;;
61360;SDS011;47232;47.506;18.936;2023-06-22T17:51:21;12.00;;;8.30;;
61360;SDS011;47232;47.506;18.936;2023-06-22T17:54:50;10.20;;;8.30;;
61360;SDS011;47232;47.506;18.936;2023-06-22T17:58:15;12.50;;;8.00;;
61360;SDS011;47232;47.506;18.936;2023-06-22T18:01:44;9.50;;;7.80;;
61360;SDS011;47232;47.506;18.936;2023-06-22T18:05:17;12.60;;;8.60;;
61360;SDS011;47232;47.506;18.936;2023-06-22T18:09:15;12.50;;;8.60;;
61360;SDS011;47232;47.506;18.936;2023-06-22T18:12:06;12.40;;;8.30;;
61360;SDS011;47232;47.506;18.936;2023-06-22T18:15:39;10.90;;;8.80;;
61360;SDS011;47232;47.506;18.936;2023-06-22T18:19:07;10.70;;;8.30;;
61360;SDS011;47232;47.506;18.936;2023-06-22T18:22:30;11.60;;;8.50;;
61360;SDS011;47232;47.506;18.936;2023-06-22T18:25:52;12.90;;;8.70;;
61360;SDS011;47232;47.506;18.936;2023-06-22T18:29:20;10.20;;;8.50;;
61360;SDS011;47232;47.506;18.936;2023-06-22T18:32:34;10.70;;;8.60;;
61360;SDS011;47232;47.506;18.936;2023-06-22T18:36:12;10.30;;;8.70;;
61360;SDS011;47232;47.506;18.936;2023-06-22T18:39:09;11.80;;;8.20;;
61360;SDS011;47232;47.506;18.936;2023-06-22T18:41:41;10.20;;;8.50;;
61360;SDS011;47232;47.506;18.936;2023-06-22T18:44:52;10.80;;;8.20;;
61360;SDS011;47232;47.506;18.936;2023-06-22T18:47:48;13.50;;;8.70;;
61360;SDS011;47232;47.506;18.936;2023-06-22T18:50:48;8.90;;;7.70;;
61360;SDS011;47232;47.506;18.936;2023-06-22T18:54:03;11.00;;;8.30;;
61360;SDS011;47232;47.506;18.936;2023-06-22T18:57:29;11.20;;;8.50;;
61360;SDS011;47232;47.506;18.936;2023-06-22T19:00:44;10.70;;;8.10;;
61360;SDS011;47232;47.506;18.936;2023-06-22T19:03:50;11.20;;;8.10;;
61360;SDS011;47232;47.506;18.936;2023-06-22T19:07:08;11.20;;;8.30;;
61360;SDS011;47232;47.506;18.936;2023-06-22T19:14:09;11.40;;;8.30;;
61360;SDS011;47232;47.506;18.936;2023-06-22T19:17:27;10.50;;;8.40;;
61360;SDS011;47232;47.506;18.936;2023-06-22T19:20:19;11.70;;;8.20;;
61360;SDS011;47232;47.506;18.936;2023-06-22T19:26:21;13.10;;;8.50;;
61360;SDS011;47232;47.506;18.936;2023-06-22T19:29:16;11.50;;;8.30;;
61360;SDS011;47232;47.506;18.936;2023-06-22T19:32:27;12.40;;;8.00;;
61360;SDS011;47232;47.506;18.936;2023-06-22T19:35:17;12.00;;;8.50;;
61360;SDS011;47232;47.506;18.936;2023-06-22T19:38:45;12.00;;;8.20;;
61360;SDS011;47232;47.506;18.936;2023-06-22T20:01:22;12.50;;;8.20;;
61360;SDS011;47232;47.506;18.936;2023-06-22T20:55:08;13.90;;;9.80;;
61360;SDS011;47232;47.506;18.936;2023-06-22T21:15:35;10.90;;;9.70;;
61360;SDS011;47232;47.506;18.936;2023-06-22T21:38:11;12.80;;;10.70;;
61360;SDS011;47232;47.506;18.936;2023-06-22T21:41:34;14.30;;;11.30;;
61360;SDS011;47232;47.506;18.936;2023-06-22T22:24:55;15.40;;;11.90;;
61360;SDS011;47232;47.506;18.936;2023-06-22T22:28:14;13.20;;;11.70;;
61360;SDS011;47232;47.506;18.936;2023-06-22T22:45:32;13.60;;;11.80;;
61360;SDS011;47232;47.506;18.936;2023-06-22T22:52:27;15.60;;;11.80;;
61360;SDS011;47232;47.506;18.936;2023-06-22T23:18:17;15.50;;;11.20;;
